createdAt,value
2024-02-09T00:00:46.894Z,21.90
2024-02-09T00:01:46.923Z,21.90
2024-02-09T00:02:47.003Z,21.90
2024-02-09T00:03:47.043Z,21.90
2024-02-09T00:04:47.140Z,21.89
2024-02-09T00:05:46.982Z,21.89
2024-02-09T00:06:47.149Z,21.89
2024-02-09T00:07:47.365Z,21.89
2024-02-09T00:08:47.184Z,21.89
2024-02-09T00:09:47.116Z,21.89
2024-02-09T00:10:47.158Z,21.88
2024-02-09T00:11:47.166Z,21.88
2024-02-09T00:12:47.220Z,21.88
2024-02-09T00:13:47.249Z,21.89
2024-02-09T00:14:47.271Z,21.88
2024-02-09T00:15:47.654Z,21.88
2024-02-09T00:16:47.383Z,21.88
2024-02-09T00:17:47.757Z,21.88
2024-02-09T00:18:47.457Z,21.87
2024-02-09T00:19:47.442Z,21.87
2024-02-09T00:20:47.428Z,21.87
2024-02-09T00:21:47.486Z,21.87
2024-02-09T00:22:47.529Z,21.87
2024-02-09T00:23:47.552Z,21.87
2024-02-09T00:24:48.069Z,21.86
2024-02-09T00:25:47.637Z,21.86
2024-02-09T00:26:47.618Z,21.86
2024-02-09T00:27:47.651Z,21.87
2024-02-09T00:28:47.733Z,21.86
2024-02-09T00:29:47.714Z,21.85
2024-02-09T00:30:47.744Z,21.85
2024-02-09T00:31:47.757Z,21.86
2024-02-09T00:32:47.987Z,21.85
2024-02-09T00:33:47.938Z,21.85
2024-02-09T00:34:47.859Z,21.85
2024-02-09T00:35:47.935Z,21.86
2024-02-09T00:36:47.923Z,21.85
2024-02-09T00:37:47.952Z,21.84
2024-02-09T00:38:47.972Z,21.85
2024-02-09T00:39:48.010Z,21.85
2024-02-09T00:40:48.066Z,21.84
2024-02-09T00:41:48.074Z,21.85
2024-02-09T00:42:48.103Z,21.84
2024-02-09T00:43:48.144Z,21.84
2024-02-09T00:44:48.166Z,21.84
2024-02-09T00:45:48.204Z,21.84
2024-02-09T00:46:48.270Z,21.84
2024-02-09T00:47:48.333Z,21.83
2024-02-09T00:48:48.309Z,21.84
2024-02-09T00:49:48.433Z,21.83
2024-02-09T00:50:49.324Z,21.83
2024-02-09T00:51:48.359Z,21.83
2024-02-09T00:52:48.328Z,21.83
2024-02-09T00:53:48.317Z,21.82
2024-02-09T00:54:48.322Z,21.83
2024-02-09T00:55:48.361Z,21.84
2024-02-09T00:56:48.324Z,21.83
2024-02-09T00:57:48.330Z,21.82
2024-02-09T00:58:48.400Z,21.82
2024-02-09T00:59:48.317Z,21.82
2024-02-09T01:00:48.343Z,21.83
2024-02-09T01:01:57.716Z,21.83
2024-02-09T01:02:49.344Z,21.82
2024-02-09T01:03:48.344Z,21.82
2024-02-09T01:04:48.449Z,21.82
2024-02-09T01:05:48.494Z,21.82
2024-02-09T01:06:48.367Z,21.82
2024-02-09T01:07:48.397Z,21.82
2024-02-09T01:08:48.344Z,21.82
2024-02-09T01:09:48.354Z,21.81
2024-02-09T01:10:48.488Z,21.81
2024-02-09T01:11:48.335Z,21.81
2024-02-09T01:12:48.331Z,21.81
2024-02-09T01:13:48.342Z,21.81
2024-02-09T01:14:48.350Z,21.81
2024-02-09T01:15:48.359Z,21.81
2024-02-09T01:16:48.395Z,21.81
2024-02-09T01:17:48.371Z,21.80
2024-02-09T01:18:48.386Z,21.80
2024-02-09T01:19:48.399Z,21.80
2024-02-09T01:20:48.379Z,21.80
2024-02-09T01:21:48.398Z,21.80
2024-02-09T01:22:48.438Z,21.79
2024-02-09T01:23:48.482Z,21.79
2024-02-09T01:24:48.494Z,21.80
2024-02-09T01:25:48.532Z,21.79
2024-02-09T01:26:48.569Z,21.79
2024-02-09T01:27:48.617Z,21.79
2024-02-09T01:28:48.644Z,21.79
2024-02-09T01:29:48.695Z,21.79
2024-02-09T01:30:48.698Z,21.79
2024-02-09T01:31:48.743Z,21.79
2024-02-09T01:32:48.846Z,21.78
2024-02-09T01:33:48.885Z,21.78
2024-02-09T01:34:49.008Z,21.78
2024-02-09T01:35:48.932Z,21.78
2024-02-09T01:36:48.918Z,21.78
2024-02-09T01:37:48.951Z,21.78
2024-02-09T01:38:48.973Z,21.78
2024-02-09T01:39:49.006Z,21.78
2024-02-09T01:40:49.034Z,21.78
2024-02-09T01:41:49.075Z,21.78
2024-02-09T01:42:49.109Z,21.77
2024-02-09T01:43:49.142Z,21.77
2024-02-09T01:44:49.172Z,21.77
2024-02-09T01:46:00.816Z,21.77
2024-02-09T01:46:49.381Z,21.75
2024-02-09T01:47:49.524Z,21.75
2024-02-09T01:48:49.522Z,21.76
2024-02-09T01:49:49.508Z,21.76
2024-02-09T01:50:49.499Z,21.75
2024-02-09T01:51:49.509Z,21.75
2024-02-09T01:52:49.628Z,21.75
2024-02-09T01:53:49.584Z,21.75
2024-02-09T01:54:49.670Z,21.75
2024-02-09T01:55:49.688Z,21.75
2024-02-09T01:56:49.693Z,21.75
2024-02-09T01:57:49.739Z,21.74
2024-02-09T01:58:49.782Z,21.75
2024-02-09T01:59:49.827Z,21.74
2024-02-09T02:00:49.880Z,21.74
2024-02-09T02:01:49.998Z,21.74
2024-02-09T02:02:49.939Z,21.74
2024-02-09T02:03:50.055Z,21.73
2024-02-09T02:04:50.162Z,21.73
2024-02-09T02:05:50.104Z,21.73
2024-02-09T02:06:50.095Z,21.73
2024-02-09T02:07:50.174Z,21.73
2024-02-09T02:08:50.183Z,21.73
2024-02-09T02:09:50.230Z,21.73
2024-02-09T02:10:50.253Z,21.73
2024-02-09T02:11:50.305Z,21.73
2024-02-09T02:12:50.359Z,21.72
2024-02-09T02:13:50.386Z,21.73
2024-02-09T02:14:50.437Z,21.71
2024-02-09T02:15:50.477Z,21.72
2024-02-09T02:16:50.561Z,21.71
2024-02-09T02:17:50.634Z,21.72
2024-02-09T02:18:50.630Z,21.71
2024-02-09T02:19:50.664Z,21.71
2024-02-09T02:20:50.688Z,21.71
2024-02-09T02:21:50.695Z,21.71
2024-02-09T02:22:50.758Z,21.71
2024-02-09T02:23:50.824Z,21.71
2024-02-09T02:24:50.797Z,21.71
2024-02-09T02:25:50.866Z,21.70
2024-02-09T02:26:50.883Z,21.70
2024-02-09T02:27:50.930Z,21.71
2024-02-09T02:28:50.976Z,21.70
2024-02-09T02:29:51.003Z,21.70
2024-02-09T02:30:51.044Z,21.70
2024-02-09T02:31:51.093Z,21.70
2024-02-09T02:32:51.165Z,21.69
2024-02-09T02:33:51.299Z,21.68
2024-02-09T02:34:51.270Z,21.70
2024-02-09T02:35:51.250Z,21.69
2024-02-09T02:36:51.294Z,21.69
2024-02-09T02:37:51.332Z,21.69
2024-02-09T02:38:51.361Z,21.69
2024-02-09T02:39:51.422Z,21.69
2024-02-09T02:40:51.460Z,21.68
2024-02-09T02:41:51.472Z,21.68
2024-02-09T02:42:51.540Z,21.68
2024-02-09T02:43:51.601Z,21.68
2024-02-09T02:44:51.654Z,21.67
2024-02-09T02:45:51.671Z,21.67
2024-02-09T02:46:51.715Z,21.67
2024-02-09T02:47:51.759Z,21.67
2024-02-09T02:48:51.808Z,21.68
2024-02-09T02:49:51.883Z,21.67
2024-02-09T02:50:51.881Z,21.68
2024-02-09T02:51:51.899Z,21.68
2024-02-09T02:52:51.953Z,21.68
2024-02-09T02:53:51.990Z,21.67
2024-02-09T02:54:52.029Z,21.67
2024-02-09T02:55:52.078Z,21.66
2024-02-09T02:56:52.117Z,21.66
2024-02-09T02:57:52.187Z,21.67
2024-02-09T02:58:52.228Z,21.66
2024-02-09T02:59:52.262Z,21.66
2024-02-09T03:00:52.357Z,21.66
2024-02-09T03:01:52.374Z,21.66
2024-02-09T03:02:52.391Z,21.66
2024-02-09T03:03:52.481Z,21.65
2024-02-09T03:04:52.614Z,21.65
2024-02-09T03:05:52.608Z,21.65
2024-02-09T03:07:13.653Z,21.65
2024-02-09T03:08:33.128Z,21.64
2024-02-09T03:08:53.658Z,21.64
2024-02-09T03:09:52.629Z,21.65
2024-02-09T03:10:52.648Z,21.64
2024-02-09T03:11:52.593Z,21.65
2024-02-09T03:12:52.600Z,21.64
2024-02-09T03:13:52.599Z,21.64
2024-02-09T03:14:52.608Z,21.64
2024-02-09T03:15:52.614Z,21.64
2024-02-09T03:16:52.596Z,21.63
2024-02-09T03:17:52.646Z,21.63
2024-02-09T03:18:52.620Z,21.63
2024-02-09T03:19:52.681Z,21.64
2024-02-09T03:20:52.609Z,21.63
2024-02-09T03:21:52.596Z,21.63
2024-02-09T03:22:52.626Z,21.62
2024-02-09T03:23:52.594Z,21.63
2024-02-09T03:24:52.606Z,21.62
2024-02-09T03:25:52.612Z,21.63
2024-02-09T03:26:52.626Z,21.62
2024-02-09T03:27:52.611Z,21.63
2024-02-09T03:28:52.631Z,21.63
2024-02-09T03:29:52.608Z,21.63
2024-02-09T03:30:52.629Z,21.62
2024-02-09T03:31:52.618Z,21.62
2024-02-09T03:32:52.884Z,21.61
2024-02-09T03:33:52.670Z,21.62
2024-02-09T03:34:52.731Z,21.61
2024-02-09T03:35:52.738Z,21.62
2024-02-09T03:36:52.623Z,21.63
2024-02-09T03:37:52.630Z,21.63
2024-02-09T03:38:52.627Z,21.64
2024-02-09T03:39:52.642Z,21.64
2024-02-09T03:40:57.742Z,21.66
2024-02-09T03:41:52.691Z,21.66
2024-02-09T03:42:52.712Z,21.67
2024-02-09T03:43:52.748Z,21.69
2024-02-09T03:44:52.710Z,21.69
2024-02-09T03:45:52.720Z,21.71
2024-02-09T03:46:52.719Z,21.72
2024-02-09T03:47:52.767Z,21.72
2024-02-09T03:48:52.756Z,21.74
2024-02-09T03:49:52.783Z,21.75
2024-02-09T03:50:52.713Z,21.76
2024-02-09T03:51:52.711Z,21.77
2024-02-09T03:52:52.713Z,21.78
2024-02-09T03:53:52.714Z,21.79
2024-02-09T03:54:52.767Z,21.81
2024-02-09T03:55:52.836Z,21.81
2024-02-09T03:56:52.841Z,21.84
2024-02-09T03:57:52.865Z,21.85
2024-02-09T03:58:52.921Z,21.86
2024-02-09T03:59:52.917Z,21.86
2024-02-09T04:00:53.024Z,21.87
2024-02-09T04:01:53.015Z,21.88
2024-02-09T04:02:53.002Z,21.90
2024-02-09T04:03:53.144Z,21.91
2024-02-09T04:04:53.092Z,21.93
2024-02-09T04:05:53.151Z,21.94
2024-02-09T04:06:53.084Z,21.96
2024-02-09T04:07:53.080Z,21.97
2024-02-09T04:08:53.112Z,21.98
2024-02-09T04:10:15.068Z,21.98
2024-02-09T04:10:54.161Z,21.99
2024-02-09T04:11:53.154Z,22.01
2024-02-09T04:12:53.150Z,22.03
2024-02-09T04:13:53.151Z,22.04
2024-02-09T04:14:53.147Z,22.05
2024-02-09T04:15:53.130Z,22.07
2024-02-09T04:16:53.146Z,22.08
2024-02-09T04:17:53.315Z,22.09
2024-02-09T04:18:53.149Z,22.09
2024-02-09T04:19:53.158Z,22.11
2024-02-09T04:20:53.141Z,22.12
2024-02-09T04:21:53.122Z,22.12
2024-02-09T04:22:53.128Z,22.13
2024-02-09T04:23:53.122Z,22.15
2024-02-09T04:24:53.132Z,22.15
2024-02-09T04:25:53.132Z,22.17
2024-02-09T04:26:53.156Z,22.18
2024-02-09T04:27:53.215Z,22.19
2024-02-09T04:28:53.152Z,22.20
2024-02-09T04:29:53.160Z,22.21
2024-02-09T04:30:53.156Z,22.23
2024-02-09T04:31:53.139Z,22.24
2024-02-09T04:33:00.468Z,22.22
2024-02-09T04:34:00.554Z,22.25
2024-02-09T04:35:00.480Z,22.26
2024-02-09T04:36:00.645Z,22.27
2024-02-09T04:37:00.389Z,22.28
2024-02-09T04:38:00.389Z,22.29
2024-02-09T04:39:00.422Z,22.30
2024-02-09T04:40:00.478Z,22.31
2024-02-09T04:41:00.461Z,22.33
2024-02-09T04:42:00.460Z,22.34
2024-02-09T04:43:00.415Z,22.35
2024-02-09T04:44:00.448Z,22.36
2024-02-09T04:45:00.402Z,22.36
2024-02-09T04:46:00.462Z,22.37
2024-02-09T04:47:00.413Z,22.38
2024-02-09T04:48:00.645Z,22.38
2024-02-09T04:49:00.553Z,22.38
2024-02-09T04:50:00.500Z,22.39
2024-02-09T04:51:00.397Z,22.39
2024-02-09T04:52:00.437Z,22.39
2024-02-09T04:53:00.430Z,22.39
2024-02-09T04:54:00.470Z,22.40
2024-02-09T04:55:00.748Z,22.40
2024-02-09T04:56:00.614Z,22.40
2024-02-09T04:57:00.680Z,22.41
2024-02-09T04:58:00.784Z,22.41
2024-02-09T04:59:00.830Z,22.41
2024-02-09T05:00:00.914Z,22.41
2024-02-09T05:01:01.078Z,22.41
2024-02-09T05:02:01.143Z,22.41
2024-02-09T05:03:01.096Z,22.41
2024-02-09T05:04:01.294Z,22.42
2024-02-09T05:05:01.407Z,22.41
2024-02-09T05:06:01.348Z,22.42
2024-02-09T05:07:01.414Z,22.41
2024-02-09T05:08:01.472Z,22.42
2024-02-09T05:09:01.539Z,22.42
2024-02-09T05:10:01.657Z,22.41
2024-02-09T05:11:01.666Z,22.42
2024-02-09T05:12:01.748Z,22.42
2024-02-09T05:13:01.819Z,22.41
2024-02-09T05:14:01.864Z,22.41
2024-02-09T05:15:01.916Z,22.42
2024-02-09T05:16:02.022Z,22.41
2024-02-09T05:17:02.040Z,22.41
2024-02-09T05:18:02.171Z,22.41
2024-02-09T05:19:02.276Z,22.41
2024-02-09T05:20:02.365Z,22.42
2024-02-09T05:21:02.323Z,22.41
2024-02-09T05:22:02.415Z,22.42
2024-02-09T05:23:03.001Z,22.42
2024-02-09T05:24:02.546Z,22.42
2024-02-09T05:25:02.656Z,22.42
2024-02-09T05:26:06.110Z,22.43
2024-02-09T05:27:02.697Z,22.42
2024-02-09T05:28:02.717Z,22.43
2024-02-09T05:29:02.689Z,22.42
2024-02-09T05:30:02.709Z,22.42
2024-02-09T05:31:02.778Z,22.42
2024-02-09T05:32:02.711Z,22.42
2024-02-09T05:33:02.756Z,22.43
2024-02-09T05:34:02.784Z,22.42
2024-02-09T05:35:02.816Z,22.43
2024-02-09T05:36:02.691Z,22.43
2024-02-09T05:37:02.736Z,22.43
2024-02-09T05:38:02.704Z,22.42
2024-02-09T05:39:02.752Z,22.43
2024-02-09T05:40:02.755Z,22.42
2024-02-09T05:41:02.689Z,22.42
2024-02-09T05:42:02.697Z,22.43
2024-02-09T05:43:02.777Z,22.43
2024-02-09T05:44:02.720Z,22.43
2024-02-09T05:45:02.684Z,22.43
2024-02-09T05:46:02.746Z,22.43
2024-02-09T05:47:02.691Z,22.43
2024-02-09T05:48:02.751Z,22.43
2024-02-09T05:49:02.806Z,22.43
2024-02-09T05:50:02.863Z,22.43
2024-02-09T05:51:02.693Z,22.43
2024-02-09T05:52:02.762Z,22.43
2024-02-09T05:53:02.797Z,22.44
2024-02-09T05:54:02.881Z,22.44
2024-02-09T05:55:02.992Z,22.44
2024-02-09T05:56:03.020Z,22.45
2024-02-09T05:57:03.069Z,22.45
2024-02-09T05:58:03.157Z,22.45
2024-02-09T05:59:03.834Z,22.45
2024-02-09T06:00:03.271Z,22.46
2024-02-09T06:01:03.417Z,22.46
2024-02-09T06:02:03.478Z,22.46
2024-02-09T06:03:03.484Z,22.47
2024-02-09T06:04:03.730Z,22.47
2024-02-09T06:05:03.689Z,22.47
2024-02-09T06:06:03.805Z,22.47
2024-02-09T06:07:03.837Z,22.48
2024-02-09T06:08:03.818Z,22.48
2024-02-09T06:09:03.934Z,22.49
2024-02-09T06:10:03.993Z,22.48
2024-02-09T06:11:04.106Z,22.49
2024-02-09T06:12:04.114Z,22.49
2024-02-09T06:13:04.303Z,22.49
2024-02-09T06:14:04.273Z,22.50
2024-02-09T06:15:04.352Z,22.49
2024-02-09T06:16:04.470Z,22.50
2024-02-09T06:17:04.470Z,22.49
2024-02-09T06:18:04.585Z,22.49
2024-02-09T06:19:04.765Z,22.50
2024-02-09T06:20:04.745Z,22.49
2024-02-09T06:21:05.013Z,22.50
2024-02-09T06:22:04.835Z,22.50
2024-02-09T06:23:04.910Z,22.50
2024-02-09T06:24:04.973Z,22.50
2024-02-09T06:25:05.091Z,22.51
2024-02-09T06:26:05.109Z,22.51
2024-02-09T06:27:05.172Z,22.50
2024-02-09T06:28:05.267Z,22.50
2024-02-09T06:29:05.333Z,22.50
2024-02-09T06:30:05.384Z,22.51
2024-02-09T06:31:05.576Z,22.51
2024-02-09T06:32:05.527Z,22.51
2024-02-09T06:33:05.687Z,22.51
2024-02-09T06:34:05.755Z,22.51
2024-02-09T06:35:06.148Z,22.52
2024-02-09T06:36:05.814Z,22.52
2024-02-09T06:37:05.968Z,22.53
2024-02-09T06:38:05.974Z,22.54
2024-02-09T06:39:06.006Z,22.55
2024-02-09T06:40:06.146Z,22.55
2024-02-09T06:41:06.149Z,22.54
2024-02-09T06:42:06.196Z,22.57
2024-02-09T06:43:06.359Z,22.59
2024-02-09T06:44:06.334Z,22.62
2024-02-09T06:45:06.388Z,22.63
2024-02-09T06:46:06.492Z,22.64
2024-02-09T06:47:06.509Z,22.58
2024-02-09T06:48:06.580Z,22.13
2024-02-09T06:49:06.910Z,21.45
2024-02-09T06:50:06.696Z,20.88
2024-02-09T06:51:06.733Z,20.28
2024-02-09T06:52:06.697Z,19.92
2024-02-09T06:53:06.810Z,19.87
2024-02-09T06:54:06.792Z,19.94
2024-02-09T06:55:06.845Z,20.09
2024-02-09T06:56:06.884Z,20.24
2024-02-09T06:57:06.897Z,20.44
2024-02-09T06:58:06.963Z,20.63
2024-02-09T06:59:06.912Z,20.82
2024-02-09T07:00:06.922Z,21.02
2024-02-09T07:01:07.138Z,21.19
2024-02-09T07:02:07.123Z,21.33
2024-02-09T07:03:07.154Z,21.45
2024-02-09T07:04:07.179Z,21.58
2024-02-09T07:05:07.195Z,21.70
2024-02-09T07:06:07.232Z,21.82
2024-02-09T07:07:07.302Z,21.93
2024-02-09T07:08:07.241Z,22.05
2024-02-09T07:09:07.325Z,22.15
2024-02-09T07:10:07.293Z,22.26
2024-02-09T07:11:07.323Z,22.35
2024-02-09T07:12:07.387Z,22.42
2024-02-09T07:13:07.538Z,22.50
2024-02-09T07:14:07.507Z,22.57
2024-02-09T07:15:07.691Z,22.66
2024-02-09T07:16:07.674Z,22.71
2024-02-09T07:17:07.679Z,22.77
2024-02-09T07:18:07.714Z,22.84
2024-02-09T07:19:07.789Z,22.91
2024-02-09T07:20:07.829Z,22.96
2024-02-09T07:21:07.798Z,22.99
2024-02-09T07:22:07.881Z,23.03
2024-02-09T07:23:07.855Z,23.08
2024-02-09T07:24:09.570Z,23.13
2024-02-09T07:25:08.030Z,23.15
2024-02-09T07:26:07.898Z,23.18
2024-02-09T07:27:07.926Z,23.22
2024-02-09T07:28:07.970Z,23.26
2024-02-09T07:29:07.938Z,23.30
2024-02-09T07:30:07.963Z,23.33
2024-02-09T07:31:07.978Z,23.37
2024-02-09T07:32:07.939Z,23.40
2024-02-09T07:33:08.048Z,23.43
2024-02-09T07:34:08.052Z,23.46
2024-02-09T07:35:08.060Z,23.48
2024-02-09T07:36:08.486Z,23.51
2024-02-09T07:37:08.085Z,23.54
2024-02-09T07:38:08.102Z,23.56
2024-02-09T07:39:08.166Z,23.58
2024-02-09T07:40:08.259Z,23.59
2024-02-09T07:41:08.302Z,23.63
2024-02-09T07:42:08.333Z,23.65
2024-02-09T07:43:08.452Z,23.68
2024-02-09T07:44:08.436Z,23.70
2024-02-09T07:45:08.456Z,23.72
2024-02-09T07:46:08.540Z,23.74
2024-02-09T07:47:08.494Z,23.75
2024-02-09T07:48:08.749Z,23.77
2024-02-09T07:49:08.614Z,23.79
2024-02-09T07:50:08.601Z,23.81
2024-02-09T07:51:08.631Z,23.82
2024-02-09T07:52:08.720Z,23.83
2024-02-09T07:53:08.753Z,23.84
2024-02-09T07:54:08.797Z,23.83
2024-02-09T07:55:09.255Z,23.81
2024-02-09T07:56:08.893Z,23.72
2024-02-09T07:57:08.893Z,23.62
2024-02-09T07:58:08.968Z,23.51
2024-02-09T07:59:08.942Z,23.38
2024-02-09T08:00:09.009Z,23.29
2024-02-09T08:01:09.116Z,23.15
2024-02-09T08:02:09.216Z,23.01
2024-02-09T08:03:09.102Z,22.88
2024-02-09T08:04:09.237Z,22.78
2024-02-09T08:05:09.426Z,22.68
2024-02-09T08:06:09.291Z,22.64
2024-02-09T08:07:09.332Z,22.65
2024-02-09T08:08:09.407Z,22.68
2024-02-09T08:09:09.416Z,22.73
2024-02-09T08:10:09.545Z,22.78
2024-02-09T08:11:09.535Z,22.83
2024-02-09T08:12:12.578Z,22.89
2024-02-09T08:13:09.617Z,22.93
2024-02-09T08:14:09.606Z,22.97
2024-02-09T08:15:09.576Z,23.02
2024-02-09T08:16:09.575Z,23.08
2024-02-09T08:17:09.569Z,23.12
2024-02-09T08:18:09.614Z,23.16
2024-02-09T08:19:09.650Z,23.20
2024-02-09T08:20:09.618Z,23.24
2024-02-09T08:21:09.577Z,23.26
2024-02-09T08:22:09.583Z,23.29
2024-02-09T08:23:09.614Z,23.32
2024-02-09T08:24:11.159Z,23.34
2024-02-09T08:25:09.638Z,23.37
2024-02-09T08:26:09.581Z,23.39
2024-02-09T08:27:09.575Z,23.42
2024-02-09T08:28:09.616Z,23.45
2024-02-09T08:29:09.597Z,23.46
2024-02-09T08:30:09.597Z,23.48
2024-02-09T08:31:09.635Z,23.52
2024-02-09T08:32:09.592Z,23.54
2024-02-09T08:33:09.631Z,23.56
2024-02-09T08:34:09.776Z,23.58
2024-02-09T08:35:09.756Z,23.59
2024-02-09T08:36:09.603Z,23.60
2024-02-09T08:37:09.676Z,23.62
2024-02-09T08:38:09.577Z,23.64
2024-02-09T08:39:09.601Z,23.65
2024-02-09T08:40:09.645Z,23.66
2024-02-09T08:41:09.614Z,23.68
2024-02-09T08:42:09.625Z,23.69
2024-02-09T08:43:09.638Z,23.70
2024-02-09T08:44:09.589Z,23.71
2024-02-09T08:45:09.617Z,23.72
2024-02-09T08:46:09.607Z,23.73
2024-02-09T08:47:09.612Z,23.73
2024-02-09T08:48:09.625Z,23.72
2024-02-09T08:49:09.651Z,23.71
2024-02-09T08:50:09.656Z,23.70
2024-02-09T08:51:09.595Z,23.68
2024-02-09T08:52:09.616Z,23.66
2024-02-09T08:53:09.603Z,23.65
2024-02-09T08:54:09.584Z,23.64
2024-02-09T08:55:09.609Z,23.63
2024-02-09T08:56:09.585Z,23.62
2024-02-09T08:57:09.591Z,23.60
2024-02-09T08:58:09.636Z,23.59
2024-02-09T08:59:11.727Z,23.58
2024-02-09T09:00:09.613Z,23.56
2024-02-09T09:01:09.718Z,23.55
2024-02-09T09:02:09.697Z,23.54
2024-02-09T09:03:09.637Z,23.53
2024-02-09T09:04:09.624Z,23.53
2024-02-09T09:05:10.474Z,23.51
2024-02-09T09:06:09.704Z,23.49
2024-02-09T09:07:09.689Z,23.49
2024-02-09T09:08:09.593Z,23.48
2024-02-09T09:09:09.632Z,23.48
2024-02-09T09:10:09.698Z,23.47
2024-02-09T09:11:09.645Z,23.45
2024-02-09T09:12:12.113Z,23.44
2024-02-09T09:13:09.642Z,23.44
2024-02-09T09:14:09.595Z,23.43
2024-02-09T09:15:09.607Z,23.43
2024-02-09T09:16:09.645Z,23.43
2024-02-09T09:17:18.076Z,23.42
2024-02-09T09:18:10.664Z,23.41
2024-02-09T09:19:09.671Z,23.41
2024-02-09T09:20:09.636Z,23.41
2024-02-09T09:21:09.630Z,23.40
2024-02-09T09:22:09.641Z,23.39
2024-02-09T09:23:09.623Z,23.39
2024-02-09T09:24:09.611Z,23.40
2024-02-09T09:25:09.641Z,23.39
2024-02-09T09:26:17.486Z,23.39
2024-02-09T09:27:10.654Z,23.39
2024-02-09T09:28:09.646Z,23.39
2024-02-09T09:29:09.634Z,23.39
2024-02-09T09:30:09.618Z,23.38
2024-02-09T09:31:09.666Z,23.38
2024-02-09T09:32:09.628Z,23.38
2024-02-09T09:33:09.642Z,23.38
2024-02-09T09:34:09.674Z,23.38
2024-02-09T09:35:09.750Z,23.37
2024-02-09T09:36:09.674Z,23.37
2024-02-09T09:37:09.660Z,23.36
2024-02-09T09:38:09.624Z,23.36
2024-02-09T09:39:10.620Z,23.33
2024-02-09T09:40:09.816Z,23.33
2024-02-09T09:41:09.704Z,23.33
2024-02-09T09:42:09.660Z,23.33
2024-02-09T09:43:09.677Z,23.34
2024-02-09T09:44:09.664Z,23.35
2024-02-09T09:45:09.665Z,23.34
2024-02-09T09:46:09.830Z,23.34
2024-02-09T09:47:09.654Z,23.35
2024-02-09T09:48:09.711Z,23.35
2024-02-09T09:49:09.869Z,23.34
2024-02-09T09:50:09.804Z,23.35
2024-02-09T09:51:09.710Z,23.34
2024-02-09T09:52:09.727Z,23.35
2024-02-09T09:53:09.791Z,23.35
2024-02-09T09:54:09.674Z,23.34
2024-02-09T09:55:09.682Z,23.34
2024-02-09T09:56:09.732Z,23.34
2024-02-09T09:57:09.716Z,23.35
2024-02-09T09:58:09.763Z,23.34
2024-02-09T09:59:09.762Z,23.34
2024-02-09T10:00:09.778Z,23.34
2024-02-09T10:01:15.302Z,23.34
2024-02-09T10:02:09.826Z,23.34
2024-02-09T10:03:09.812Z,23.34
2024-02-09T10:04:09.845Z,23.35
2024-02-09T10:05:09.975Z,23.36
2024-02-09T10:06:10.058Z,23.36
2024-02-09T10:07:09.877Z,23.37
2024-02-09T10:08:09.927Z,23.38
2024-02-09T10:09:09.808Z,23.38
2024-02-09T10:10:09.855Z,23.38
2024-02-09T10:11:09.822Z,23.38
2024-02-09T10:12:09.820Z,23.38
2024-02-09T10:13:11.656Z,23.39
2024-02-09T10:14:09.798Z,23.39
2024-02-09T10:15:09.816Z,23.39
2024-02-09T10:16:09.860Z,23.39
2024-02-09T10:17:09.819Z,23.39
2024-02-09T10:18:09.896Z,23.39
2024-02-09T10:19:09.917Z,23.38
2024-02-09T10:20:09.816Z,23.39
2024-02-09T10:21:09.815Z,23.38
2024-02-09T10:22:16.127Z,23.38
2024-02-09T10:23:10.935Z,23.37
2024-02-09T10:24:11.294Z,23.37
2024-02-09T10:25:09.962Z,23.36
2024-02-09T10:26:09.839Z,23.36
2024-02-09T10:27:09.843Z,23.37
2024-02-09T10:28:09.861Z,23.36
2024-02-09T10:29:09.848Z,23.37
2024-02-09T10:30:09.832Z,23.36
2024-02-09T10:31:09.872Z,23.35
2024-02-09T10:32:09.872Z,23.36
2024-02-09T10:33:09.848Z,23.35
2024-02-09T10:34:10.035Z,23.34
2024-02-09T10:35:09.921Z,23.35
2024-02-09T10:36:09.995Z,23.34
2024-02-09T10:37:17.004Z,23.34
2024-02-09T10:38:11.021Z,23.34
2024-02-09T10:39:09.907Z,23.34
2024-02-09T10:40:09.894Z,23.34
2024-02-09T10:41:09.847Z,23.34
2024-02-09T10:42:09.854Z,23.34
2024-02-09T10:43:09.931Z,23.34
2024-02-09T10:44:09.884Z,23.35
2024-02-09T10:45:13.904Z,23.33
2024-02-09T10:46:10.909Z,23.33
2024-02-09T10:47:09.885Z,23.33
2024-02-09T10:48:09.943Z,23.33
2024-02-09T10:49:10.072Z,23.29
2024-02-09T10:50:09.991Z,23.16
2024-02-09T10:51:09.861Z,23.10
2024-02-09T10:52:09.887Z,22.98
2024-02-09T10:53:09.864Z,22.98
2024-02-09T10:54:09.920Z,22.97
2024-02-09T10:55:09.936Z,22.97
2024-02-09T10:56:09.895Z,22.97
2024-02-09T10:57:09.912Z,22.99
2024-02-09T10:58:09.944Z,23.00
2024-02-09T10:59:09.865Z,23.02
2024-02-09T11:00:09.872Z,23.06
2024-02-09T11:01:09.969Z,23.09
2024-02-09T11:02:09.998Z,23.08
2024-02-09T11:03:10.017Z,23.06
2024-02-09T11:04:10.150Z,23.07
2024-02-09T11:05:10.262Z,23.08
2024-02-09T11:06:10.262Z,23.10
2024-02-09T11:07:10.284Z,23.13
2024-02-09T11:08:10.352Z,23.15
2024-02-09T11:09:10.314Z,23.17
2024-02-09T11:10:10.396Z,23.19
2024-02-09T11:11:10.386Z,23.21
2024-02-09T11:12:10.430Z,23.25
2024-02-09T11:13:10.458Z,23.27
2024-02-09T11:14:10.663Z,23.28
2024-02-09T11:15:10.513Z,23.28
2024-02-09T11:16:10.642Z,23.30
2024-02-09T11:17:10.603Z,23.32
2024-02-09T11:18:10.611Z,23.35
2024-02-09T11:19:10.684Z,23.36
2024-02-09T11:20:10.665Z,23.39
2024-02-09T11:21:10.675Z,23.42
2024-02-09T11:22:10.812Z,23.45
2024-02-09T11:23:10.736Z,23.49
2024-02-09T11:24:10.748Z,23.52
2024-02-09T11:25:10.795Z,23.56
2024-02-09T11:26:10.801Z,23.58
2024-02-09T11:27:10.769Z,23.60
2024-02-09T11:28:10.809Z,23.63
2024-02-09T11:29:10.775Z,23.67
2024-02-09T11:30:10.803Z,23.71
2024-02-09T11:31:10.838Z,23.75
2024-02-09T11:32:10.841Z,23.78
2024-02-09T11:33:10.872Z,23.80
2024-02-09T11:34:11.040Z,23.83
2024-02-09T11:35:11.073Z,23.88
2024-02-09T11:36:11.064Z,23.90
2024-02-09T11:37:11.236Z,23.93
2024-02-09T11:38:11.224Z,23.95
2024-02-09T11:39:11.285Z,23.97
2024-02-09T11:40:11.437Z,23.98
2024-02-09T11:41:11.442Z,24.01
2024-02-09T11:42:12.056Z,24.03
2024-02-09T11:43:11.581Z,24.04
2024-02-09T11:44:11.654Z,24.03
2024-02-09T11:45:11.707Z,24.03
2024-02-09T11:46:11.837Z,24.02
2024-02-09T11:47:11.852Z,24.01
2024-02-09T11:48:11.976Z,23.99
2024-02-09T11:49:12.082Z,23.98
2024-02-09T11:50:12.065Z,23.97
2024-02-09T11:51:12.083Z,23.96
2024-02-09T11:52:12.157Z,23.94
2024-02-09T11:53:13.421Z,23.93
2024-02-09T11:54:12.214Z,23.92
2024-02-09T11:55:12.296Z,23.91
2024-02-09T11:56:12.307Z,23.91
2024-02-09T11:57:14.544Z,23.89
2024-02-09T11:58:12.438Z,23.90
2024-02-09T11:59:12.454Z,23.90
2024-02-09T12:00:12.443Z,23.89
2024-02-09T12:01:12.557Z,23.88
2024-02-09T12:02:12.583Z,23.88
2024-02-09T12:03:15.870Z,23.87
2024-02-09T12:04:12.699Z,23.86
2024-02-09T12:05:12.589Z,23.86
2024-02-09T12:06:12.487Z,23.85
2024-02-09T12:07:12.580Z,23.85
2024-02-09T12:08:12.565Z,23.84
2024-02-09T12:09:14.797Z,23.84
2024-02-09T12:10:12.643Z,23.84
2024-02-09T12:11:12.639Z,23.83
2024-02-09T12:12:12.702Z,23.84
2024-02-09T12:13:12.782Z,23.83
2024-02-09T12:14:12.756Z,23.84
2024-02-09T12:15:12.802Z,23.84
2024-02-09T12:16:12.874Z,23.85
2024-02-09T12:17:12.877Z,23.85
2024-02-09T12:18:13.061Z,23.86
2024-02-09T12:19:13.010Z,23.86
2024-02-09T12:20:13.036Z,23.88
2024-02-09T12:21:13.025Z,23.89
2024-02-09T12:22:13.135Z,23.90
2024-02-09T12:23:13.160Z,23.90
2024-02-09T12:24:13.228Z,23.92
2024-02-09T12:25:13.319Z,23.94
2024-02-09T12:26:13.331Z,23.96
2024-02-09T12:27:13.401Z,23.98
2024-02-09T12:28:13.561Z,23.99
2024-02-09T12:29:13.627Z,23.99
2024-02-09T12:30:13.639Z,24.00
2024-02-09T12:31:13.731Z,23.99
2024-02-09T12:32:13.777Z,24.00
2024-02-09T12:33:14.162Z,24.00
2024-02-09T12:34:14.141Z,24.00
2024-02-09T12:35:14.082Z,23.99
2024-02-09T12:36:14.052Z,23.99
2024-02-09T12:37:14.208Z,23.99
2024-02-09T12:38:14.184Z,23.99
2024-02-09T12:39:14.246Z,23.99
2024-02-09T12:40:14.323Z,24.00
2024-02-09T12:41:14.383Z,24.02
2024-02-09T12:42:14.456Z,24.03
2024-02-09T12:43:14.607Z,24.03
2024-02-09T12:44:14.589Z,24.03
2024-02-09T12:45:14.646Z,24.02
2024-02-09T12:46:14.783Z,24.02
2024-02-09T12:47:14.792Z,24.02
2024-02-09T12:48:14.964Z,24.02
2024-02-09T12:49:15.061Z,24.02
2024-02-09T12:50:15.108Z,24.05
2024-02-09T12:51:15.057Z,24.05
2024-02-09T12:52:15.178Z,24.04
2024-02-09T12:53:15.226Z,24.03